sensor_id;sensor_type;location;lat;lon;timestamp;pressure;altitude;pressure_sealevel;temperature;humidity
49297;BME280;35163;48.878;18.040;2023-04-16T00:01:49;98057.31;;;9.40;78.98
49297;BME280;35163;48.878;18.040;2023-04-16T00:04:16;98059.03;;;9.40;79.27
49297;BME280;35163;48.878;18.040;2023-04-16T00:06:43;98061.78;;;9.35;79.69
49297;BME280;35163;48.878;18.040;2023-04-16T00:09:09;98064.47;;;9.32;79.54
49297;BME280;35163;48.878;18.040;2023-04-16T00:11:36;98053.34;;;9.30;79.79
49297;BME280;35163;48.878;18.040;2023-04-16T00:14:03;98057.66;;;9.29;79.52
49297;BME280;35163;48.878;18.040;2023-04-16T00:16:30;98056.91;;;9.26;79.41
49297;BME280;35163;48.878;18.040;2023-04-16T00:18:57;98058.59;;;9.27;79.01
49297;BME280;35163;48.878;18.040;2023-04-16T00:21:23;98060.22;;;9.29;78.80
49297;BME280;35163;48.878;18.040;2023-04-16T00:23:52;98061.28;;;9.23;79.38
49297;BME280;35163;48.878;18.040;2023-04-16T00:26:18;98066.44;;;9.23;79.19
49297;BME280;35163;48.878;18.040;2023-04-16T00:28:45;98064.75;;;9.22;79.77
49297;BME280;35163;48.878;18.040;2023-04-16T00:31:12;98065.69;;;9.20;79.87
49297;BME280;35163;48.878;18.040;2023-04-16T00:33:38;98072.59;;;9.19;79.93
49297;BME280;35163;48.878;18.040;2023-04-16T00:36:05;98066.56;;;9.19;80.12
49297;BME280;35163;48.878;18.040;2023-04-16T00:38:32;98071.66;;;9.22;78.55
49297;BME280;35163;48.878;18.040;2023-04-16T00:40:59;98069.03;;;9.23;77.43
49297;BME280;35163;48.878;18.040;2023-04-16T00:43:26;98072.38;;;9.26;77.67
49297;BME280;35163;48.878;18.040;2023-04-16T00:45:55;98076.56;;;9.30;76.82
49297;BME280;35163;48.878;18.040;2023-04-16T00:48:22;98079.16;;;9.30;76.74
49297;BME280;35163;48.878;18.040;2023-04-16T00:50:49;98082.53;;;9.32;77.08
49297;BME280;35163;48.878;18.040;2023-04-16T00:53:16;98077.16;;;9.38;76.40
49297;BME280;35163;48.878;18.040;2023-04-16T00:55:42;98081.44;;;9.39;76.22
49297;BME280;35163;48.878;18.040;2023-04-16T00:58:09;98082.22;;;9.41;76.18
49297;BME280;35163;48.878;18.040;2023-04-16T01:00:36;98085.00;;;9.35;76.16
49297;BME280;35163;48.878;18.040;2023-04-16T01:03:06;98093.53;;;9.37;76.11
49297;BME280;35163;48.878;18.040;2023-04-16T01:05:35;98090.06;;;9.38;76.60
49297;BME280;35163;48.878;18.040;2023-04-16T01:08:02;98094.47;;;9.34;76.67
49297;BME280;35163;48.878;18.040;2023-04-16T01:10:28;98098.81;;;9.34;76.92
49297;BME280;35163;48.878;18.040;2023-04-16T01:12:55;98090.44;;;9.26;77.93
49297;BME280;35163;48.878;18.040;2023-04-16T01:15:22;98086.88;;;9.30;77.56
49297;BME280;35163;48.878;18.040;2023-04-16T01:17:50;98092.25;;;9.23;77.71
49297;BME280;35163;48.878;18.040;2023-04-16T01:20:16;98092.41;;;9.17;79.13
49297;BME280;35163;48.878;18.040;2023-04-16T01:22:43;98089.78;;;9.19;78.88
49297;BME280;35163;48.878;18.040;2023-04-16T01:25:13;98100.22;;;9.16;78.39
49297;BME280;35163;48.878;18.040;2023-04-16T01:27:40;98092.66;;;9.09;79.67
49297;BME280;35163;48.878;18.040;2023-04-16T01:30:07;98091.91;;;9.06;80.43
49297;BME280;35163;48.878;18.040;2023-04-16T01:32:34;98096.16;;;9.07;80.61
49297;BME280;35163;48.878;18.040;2023-04-16T01:35:01;98098.94;;;9.01;81.61
49297;BME280;35163;48.878;18.040;2023-04-16T01:37:27;98101.63;;;8.97;81.87
49297;BME280;35163;48.878;18.040;2023-04-16T01:39:56;98107.69;;;8.95;81.72
49297;BME280;35163;48.878;18.040;2023-04-16T01:42:23;98105.81;;;9.00;81.41
49297;BME280;35163;48.878;18.040;2023-04-16T01:44:50;98098.13;;;8.98;81.64
49297;BME280;35163;48.878;18.040;2023-04-16T01:47:16;98105.94;;;8.97;81.57
49297;BME280;35163;48.878;18.040;2023-04-16T01:49:43;98110.31;;;8.93;81.91
49297;BME280;35163;48.878;18.040;2023-04-16T01:52:11;98112.97;;;8.92;82.20
49297;BME280;35163;48.878;18.040;2023-04-16T01:54:37;98109.53;;;8.91;82.13
49297;BME280;35163;48.878;18.040;2023-04-16T01:57:04;98108.66;;;8.92;81.77
49297;BME280;35163;48.878;18.040;2023-04-16T01:59:30;98110.44;;;8.90;82.16
49297;BME280;35163;48.878;18.040;2023-04-16T02:02:07;98108.75;;;8.89;82.26
49297;BME280;35163;48.878;18.040;2023-04-16T02:04:40;98112.97;;;8.92;81.91
49297;BME280;35163;48.878;18.040;2023-04-16T02:07:07;98115.59;;;8.90;82.50
49297;BME280;35163;48.878;18.040;2023-04-16T02:09:35;98107.03;;;8.88;82.05
49297;BME280;35163;48.878;18.040;2023-04-16T02:12:02;98113.81;;;8.92;81.84
49297;BME280;35163;48.878;18.040;2023-04-16T02:14:30;98111.31;;;8.89;81.78
49297;BME280;35163;48.878;18.040;2023-04-16T02:16:57;98119.06;;;8.89;82.03
49297;BME280;35163;48.878;18.040;2023-04-16T02:19:24;98117.31;;;8.90;81.77
49297;BME280;35163;48.878;18.040;2023-04-16T02:21:51;98120.75;;;8.90;81.52
49297;BME280;35163;48.878;18.040;2023-04-16T02:24:18;98118.16;;;8.90;81.78
49297;BME280;35163;48.878;18.040;2023-04-16T02:26:47;98123.31;;;8.90;81.40
49297;BME280;35163;48.878;18.040;2023-04-16T02:29:14;98123.28;;;8.92;81.72
49297;BME280;35163;48.878;18.040;2023-04-16T02:31:41;98128.44;;;8.92;81.25
49297;BME280;35163;48.878;18.040;2023-04-16T02:34:08;98128.31;;;8.95;81.82
49297;BME280;35163;48.878;18.040;2023-04-16T02:36:35;98122.31;;;8.96;81.32
49297;BME280;35163;48.878;18.040;2023-04-16T02:39:02;98129.22;;;8.94;81.87
49297;BME280;35163;48.878;18.040;2023-04-16T02:41:29;98133.50;;;8.95;81.94
49297;BME280;35163;48.878;18.040;2023-04-16T02:43:56;98132.66;;;8.94;81.91
49297;BME280;35163;48.878;18.040;2023-04-16T02:46:22;98130.97;;;8.93;81.63
49297;BME280;35163;48.878;18.040;2023-04-16T02:48:49;98132.56;;;8.97;81.89
49297;BME280;35163;48.878;18.040;2023-04-16T02:51:16;98136.00;;;8.96;81.73
49297;BME280;35163;48.878;18.040;2023-04-16T02:53:43;98130.97;;;8.93;81.10
49297;BME280;35163;48.878;18.040;2023-04-16T02:56:11;98136.00;;;8.96;81.12
49297;BME280;35163;48.878;18.040;2023-04-16T02:58:38;98135.25;;;8.94;80.34
49297;BME280;35163;48.878;18.040;2023-04-16T03:01:05;98140.50;;;8.90;80.82
49297;BME280;35163;48.878;18.040;2023-04-16T03:03:32;98140.50;;;8.90;81.31
49297;BME280;35163;48.878;18.040;2023-04-16T03:05:58;98140.56;;;8.88;81.44
49297;BME280;35163;48.878;18.040;2023-04-16T03:08:25;98140.34;;;8.96;82.03
49297;BME280;35163;48.878;18.040;2023-04-16T03:10:52;98138.66;;;8.95;82.05
49297;BME280;35163;48.878;18.040;2023-04-16T03:13:19;98141.22;;;8.95;80.01
49297;BME280;35163;48.878;18.040;2023-04-16T03:15:49;98151.25;;;9.06;77.44
49297;BME280;35163;48.878;18.040;2023-04-16T03:18:16;98147.00;;;9.03;77.13
49297;BME280;35163;48.878;18.040;2023-04-16T03:20:42;98146.06;;;9.06;76.78
49297;BME280;35163;48.878;18.040;2023-04-16T03:23:12;98149.75;;;8.97;76.39
49297;BME280;35163;48.878;18.040;2023-04-16T03:25:39;98159.94;;;9.02;75.91
49297;BME280;35163;48.878;18.040;2023-04-16T03:28:06;98154.78;;;9.02;75.93
49297;BME280;35163;48.878;18.040;2023-04-16T03:30:32;98161.66;;;9.03;76.25
49297;BME280;35163;48.878;18.040;2023-04-16T03:32:59;98161.06;;;8.93;76.52
49297;BME280;35163;48.878;18.040;2023-04-16T03:35:26;98165.34;;;8.94;76.38
49297;BME280;35163;48.878;18.040;2023-04-16T03:37:53;98166.38;;;8.86;76.89
49297;BME280;35163;48.878;18.040;2023-04-16T03:40:20;98170.75;;;8.84;76.84
49297;BME280;35163;48.878;18.040;2023-04-16T03:42:46;98169.88;;;8.85;76.95
49297;BME280;35163;48.878;18.040;2023-04-16T03:45:13;98174.25;;;8.82;76.50
49297;BME280;35163;48.878;18.040;2023-04-16T03:47:40;98176.31;;;8.70;77.04
49297;BME280;35163;48.878;18.040;2023-04-16T03:50:10;98175.41;;;8.71;77.70
49297;BME280;35163;48.878;18.040;2023-04-16T03:52:37;98176.31;;;8.70;77.28
49297;BME280;35163;48.878;18.040;2023-04-16T03:55:04;98178.06;;;8.68;77.97
49297;BME280;35163;48.878;18.040;2023-04-16T03:57:31;98182.47;;;8.65;77.57
49297;BME280;35163;48.878;18.040;2023-04-16T03:59:58;98185.84;;;8.67;77.61
49297;BME280;35163;48.878;18.040;2023-04-16T04:02:24;98185.94;;;8.63;77.64
49297;BME280;35163;48.878;18.040;2023-04-16T04:04:51;98193.69;;;8.62;78.15
49297;BME280;35163;48.878;18.040;2023-04-16T04:07:18;98199.69;;;8.62;77.94
49297;BME280;35163;48.878;18.040;2023-04-16T04:09:44;98203.25;;;8.58;78.45
49297;BME280;35163;48.878;18.040;2023-04-16T04:12:11;98197.16;;;8.61;78.01
49297;BME280;35163;48.878;18.040;2023-04-16T04:14:38;98204.19;;;8.56;78.15
49297;BME280;35163;48.878;18.040;2023-04-16T04:17:05;98204.19;;;8.56;78.42
49297;BME280;35163;48.878;18.040;2023-04-16T04:19:32;98204.31;;;8.49;78.90
49297;BME280;35163;48.878;18.040;2023-04-16T04:21:59;98207.72;;;8.51;78.61
49297;BME280;35163;48.878;18.040;2023-04-16T04:24:25;98212.13;;;8.46;78.54
49297;BME280;35163;48.878;18.040;2023-04-16T04:26:52;98222.16;;;8.57;78.52
49297;BME280;35163;48.878;18.040;2023-04-16T04:29:21;98220.31;;;8.62;78.44
49297;BME280;35163;48.878;18.040;2023-04-16T04:31:48;98226.41;;;8.60;78.30
49297;BME280;35163;48.878;18.040;2023-04-16T04:34:15;98226.31;;;8.63;78.79
49297;BME280;35163;48.878;18.040;2023-04-16T04:36:42;98228.72;;;8.69;78.75
49297;BME280;35163;48.878;18.040;2023-04-16T04:39:08;98232.06;;;8.73;78.24
49297;BME280;35163;48.878;18.040;2023-04-16T04:41:35;98238.81;;;8.79;77.09
49297;BME280;35163;48.878;18.040;2023-04-16T04:44:02;98236.91;;;8.85;76.86
49297;BME280;35163;48.878;18.040;2023-04-16T04:46:29;98236.81;;;8.89;76.47
49297;BME280;35163;48.878;18.040;2023-04-16T04:48:55;98243.56;;;8.94;76.35
49297;BME280;35163;48.878;18.040;2023-04-16T04:51:22;98237.59;;;8.92;76.69
49297;BME280;35163;48.878;18.040;2023-04-16T04:53:49;98250.53;;;8.91;76.74
49297;BME280;35163;48.878;18.040;2023-04-16T04:56:15;98247.81;;;8.95;77.69
49297;BME280;35163;48.878;18.040;2023-04-16T04:58:42;98256.44;;;8.94;78.45
49297;BME280;35163;48.878;18.040;2023-04-16T05:01:09;98264.31;;;8.88;79.93
49297;BME280;35163;48.878;18.040;2023-04-16T05:03:39;98259.09;;;8.91;80.63
49297;BME280;35163;48.878;18.040;2023-04-16T05:06:06;98259.69;;;9.01;80.36
49297;BME280;35163;48.878;18.040;2023-04-16T05:08:33;98268.19;;;9.05;80.92
49297;BME280;35163;48.878;18.040;2023-04-16T05:10:59;98276.66;;;9.10;81.40
49297;BME280;35163;48.878;18.040;2023-04-16T05:13:26;98269.59;;;9.17;81.12
49297;BME280;35163;48.878;18.040;2023-04-16T05:15:53;98276.28;;;9.22;80.91
49297;BME280;35163;48.878;18.040;2023-04-16T05:18:20;98274.34;;;9.31;81.24
49297;BME280;35163;48.878;18.040;2023-04-16T05:20:46;98278.34;;;9.41;81.17
49297;BME280;35163;48.878;18.040;2023-04-16T05:23:13;98269.50;;;9.50;79.39
49297;BME280;35163;48.878;18.040;2023-04-16T05:25:41;98275.41;;;9.54;75.71
49297;BME280;35163;48.878;18.040;2023-04-16T05:28:08;98272.03;;;9.52;75.02
49297;BME280;35163;48.878;18.040;2023-04-16T05:30:35;98274.44;;;9.58;74.65
49297;BME280;35163;48.878;18.040;2023-04-16T05:33:02;98282.09;;;9.61;73.80
49297;BME280;35163;48.878;18.040;2023-04-16T05:35:29;98283.63;;;9.67;73.32
49297;BME280;35163;48.878;18.040;2023-04-16T05:37:55;98285.88;;;9.78;73.12
49297;BME280;35163;48.878;18.040;2023-04-16T05:40:22;98279.06;;;9.77;72.56
49297;BME280;35163;48.878;18.040;2023-04-16T05:42:49;98278.94;;;9.80;72.47
49297;BME280;35163;48.878;18.040;2023-04-16T05:45:15;98272.06;;;9.79;71.55
49297;BME280;35163;48.878;18.040;2023-04-16T05:47:42;98283.16;;;9.82;71.54
49297;BME280;35163;48.878;18.040;2023-04-16T05:50:12;98283.22;;;9.81;72.38
49297;BME280;35163;48.878;18.040;2023-04-16T05:52:38;98290.16;;;9.79;72.21
49297;BME280;35163;48.878;18.040;2023-04-16T05:55:05;98295.06;;;9.88;72.09
49297;BME280;35163;48.878;18.040;2023-04-16T05:57:34;98293.38;;;9.85;72.13
49297;BME280;35163;48.878;18.040;2023-04-16T06:00:01;98294.09;;;9.91;72.00
49297;BME280;35163;48.878;18.040;2023-04-16T06:02:29;98298.34;;;9.93;71.47
49297;BME280;35163;48.878;18.040;2023-04-16T06:04:57;98303.19;;;10.04;71.64
49297;BME280;35163;48.878;18.040;2023-04-16T06:07:23;98303.47;;;10.22;70.70
49297;BME280;35163;48.878;18.040;2023-04-16T06:09:50;98307.91;;;10.47;69.54
49297;BME280;35163;48.878;18.040;2023-04-16T06:12:16;98306.22;;;10.72;68.93
49297;BME280;35163;48.878;18.040;2023-04-16T06:14:43;98304.03;;;10.86;67.89
49297;BME280;35163;48.878;18.040;2023-04-16T06:17:10;98311.94;;;11.07;66.98
49297;BME280;35163;48.878;18.040;2023-04-16T06:19:36;98312.31;;;11.20;66.19
49297;BME280;35163;48.878;18.040;2023-04-16T06:22:03;98310.91;;;11.35;66.11
49297;BME280;35163;48.878;18.040;2023-04-16T06:24:32;98308.50;;;11.54;65.68
49297;BME280;35163;48.878;18.040;2023-04-16T06:27:01;98307.81;;;11.73;64.67
49297;BME280;35163;48.878;18.040;2023-04-16T06:29:28;98305.50;;;11.89;65.09
49297;BME280;35163;48.878;18.040;2023-04-16T06:32:06;98305.53;;;12.12;63.74
49297;BME280;35163;48.878;18.040;2023-04-16T06:34:33;98304.00;;;12.29;64.10
49297;BME280;35163;48.878;18.040;2023-04-16T06:37:00;98307.97;;;12.37;62.36
49297;BME280;35163;48.878;18.040;2023-04-16T06:39:26;98307.47;;;12.50;61.29
49297;BME280;35163;48.878;18.040;2023-04-16T06:41:53;98304.13;;;12.69;60.50
49297;BME280;35163;48.878;18.040;2023-04-16T06:44:20;98301.69;;;12.85;61.46
49297;BME280;35163;48.878;18.040;2023-04-16T06:46:47;98299.53;;;12.95;60.63
49297;BME280;35163;48.878;18.040;2023-04-16T06:49:13;98298.88;;;13.10;60.77
49297;BME280;35163;48.878;18.040;2023-04-16T06:51:41;98290.47;;;13.24;60.31
49297;BME280;35163;48.878;18.040;2023-04-16T06:54:07;98297.09;;;13.32;59.17
49297;BME280;35163;48.878;18.040;2023-04-16T06:56:34;98298.38;;;13.42;59.71
49297;BME280;35163;48.878;18.040;2023-04-16T06:59:03;98299.81;;;13.48;59.56
49297;BME280;35163;48.878;18.040;2023-04-16T07:01:31;98301.91;;;13.60;58.98
49297;BME280;35163;48.878;18.040;2023-04-16T07:03:58;98306.13;;;13.63;56.90
49297;BME280;35163;48.878;18.040;2023-04-16T07:06:25;98307.44;;;13.72;58.87
49297;BME280;35163;48.878;18.040;2023-04-16T07:08:52;98313.88;;;13.82;57.39
49297;BME280;35163;48.878;18.040;2023-04-16T07:11:21;98314.81;;;13.81;56.73
49297;BME280;35163;48.878;18.040;2023-04-16T07:13:48;98312.69;;;13.90;57.40
49297;BME280;35163;48.878;18.040;2023-04-16T07:16:16;98310.09;;;13.90;55.59
49297;BME280;35163;48.878;18.040;2023-04-16T07:18:46;98317.19;;;14.05;56.33
49297;BME280;35163;48.878;18.040;2023-04-16T07:21:13;98312.53;;;14.12;55.88
49297;BME280;35163;48.878;18.040;2023-04-16T07:23:40;98319.81;;;14.23;55.11
49297;BME280;35163;48.878;18.040;2023-04-16T07:26:07;98321.69;;;14.39;55.24
49297;BME280;35163;48.878;18.040;2023-04-16T07:28:34;98321.06;;;14.51;54.25
49297;BME280;35163;48.878;18.040;2023-04-16T07:31:00;98326.06;;;14.56;53.08
49297;BME280;35163;48.878;18.040;2023-04-16T07:33:27;98324.72;;;14.65;53.75
49297;BME280;35163;48.878;18.040;2023-04-16T07:35:54;98323.50;;;14.72;53.61
49297;BME280;35163;48.878;18.040;2023-04-16T07:38:20;98323.00;;;14.83;52.56
49297;BME280;35163;48.878;18.040;2023-04-16T07:40:47;98319.16;;;14.90;53.15
49297;BME280;35163;48.878;18.040;2023-04-16T07:43:14;98324.75;;;15.00;52.32
49297;BME280;35163;48.878;18.040;2023-04-16T07:45:41;98328.78;;;15.06;51.42
49297;BME280;35163;48.878;18.040;2023-04-16T07:48:08;98328.06;;;15.20;52.43
49297;BME280;35163;48.878;18.040;2023-04-16T07:50:35;98330.53;;;15.23;51.13
49297;BME280;35163;48.878;18.040;2023-04-16T07:53:02;98334.06;;;15.22;50.57
49297;BME280;35163;48.878;18.040;2023-04-16T07:55:29;98326.56;;;15.16;50.20
49297;BME280;35163;48.878;18.040;2023-04-16T07:57:55;98329.00;;;15.19;51.43
49297;BME280;35163;48.878;18.040;2023-04-16T08:00:22;98330.53;;;15.23;52.14
49297;BME280;35163;48.878;18.040;2023-04-16T08:02:49;98332.06;;;15.27;51.27
49297;BME280;35163;48.878;18.040;2023-04-16T08:05:16;98329.03;;;15.35;51.54
49297;BME280;35163;48.878;18.040;2023-04-16T08:07:42;98326.22;;;15.40;50.32
49297;BME280;35163;48.878;18.040;2023-04-16T08:10:09;98328.31;;;15.49;49.89
49297;BME280;35163;48.878;18.040;2023-04-16T08:12:36;98336.72;;;15.54;50.76
49297;BME280;35163;48.878;18.040;2023-04-16T08:15:06;98337.31;;;15.60;50.64
49297;BME280;35163;48.878;18.040;2023-04-16T08:17:33;98327.31;;;15.68;50.62
49297;BME280;35163;48.878;18.040;2023-04-16T08:20:00;98329.91;;;15.68;50.35
49297;BME280;35163;48.878;18.040;2023-04-16T08:22:27;98331.09;;;15.78;50.95
49297;BME280;35163;48.878;18.040;2023-04-16T08:24:53;98330.44;;;15.75;49.87
49297;BME280;35163;48.878;18.040;2023-04-16T08:27:22;98342.13;;;15.84;49.12
49297;BME280;35163;48.878;18.040;2023-04-16T08:29:48;98334.72;;;15.92;48.40
49297;BME280;35163;48.878;18.040;2023-04-16T08:32:15;98342.22;;;15.98;48.95
49297;BME280;35163;48.878;18.040;2023-04-16T08:34:42;98343.44;;;16.09;49.06
49297;BME280;35163;48.878;18.040;2023-04-16T08:37:09;98338.03;;;16.12;48.22
49297;BME280;35163;48.878;18.040;2023-04-16T08:39:35;98344.75;;;16.16;47.37
49297;BME280;35163;48.878;18.040;2023-04-16T08:42:17;98344.91;;;16.13;47.76
49297;BME280;35163;48.878;18.040;2023-04-16T08:44:48;98347.53;;;16.13;47.85
49297;BME280;35163;48.878;18.040;2023-04-16T08:47:18;98344.91;;;16.13;46.99
49297;BME280;35163;48.878;18.040;2023-04-16T08:49:48;98349.47;;;16.09;48.02
49297;BME280;35163;48.878;18.040;2023-04-16T08:52:17;98344.25;;;16.09;48.03
49297;BME280;35163;48.878;18.040;2023-04-16T08:54:52;98344.41;;;16.22;47.96
49297;BME280;35163;48.878;18.040;2023-04-16T08:57:23;98342.91;;;16.18;47.99
49297;BME280;35163;48.878;18.040;2023-04-16T08:59:53;98357.78;;;16.16;48.25
49297;BME280;35163;48.878;18.040;2023-04-16T09:02:21;98362.28;;;16.14;47.32
49297;BME280;35163;48.878;18.040;2023-04-16T09:04:49;98358.13;;;16.10;47.13
49297;BME280;35163;48.878;18.040;2023-04-16T09:07:18;98358.91;;;16.12;46.27
49297;BME280;35163;48.878;18.040;2023-04-16T09:09:47;98367.50;;;16.14;46.96
49297;BME280;35163;48.878;18.040;2023-04-16T09:12:16;98367.72;;;16.09;46.69
49297;BME280;35163;48.878;18.040;2023-04-16T09:14:47;98370.41;;;16.08;46.84
49297;BME280;35163;48.878;18.040;2023-04-16T09:17:15;98370.09;;;16.14;46.25
49297;BME280;35163;48.878;18.040;2023-04-16T09:19:42;98362.50;;;16.25;47.12
49297;BME280;35163;48.878;18.040;2023-04-16T09:22:09;98370.34;;;16.25;45.78
49297;BME280;35163;48.878;18.040;2023-04-16T09:24:36;98369.75;;;16.20;46.47
49297;BME280;35163;48.878;18.040;2023-04-16T09:27:07;98368.41;;;16.13;46.10
49297;BME280;35163;48.878;18.040;2023-04-16T09:29:37;98374.56;;;16.12;46.48
49297;BME280;35163;48.878;18.040;2023-04-16T09:32:09;98370.66;;;16.19;46.55
49297;BME280;35163;48.878;18.040;2023-04-16T09:35:00;98365.19;;;16.24;45.12
49297;BME280;35163;48.878;18.040;2023-04-16T09:37:28;98370.34;;;16.25;44.92
49297;BME280;35163;48.878;18.040;2023-04-16T09:42:26;98366.47;;;16.33;44.48
49297;BME280;35163;48.878;18.040;2023-04-16T09:44:54;98363.19;;;16.29;44.82
49297;BME280;35163;48.878;18.040;2023-04-16T09:47:38;98360.72;;;16.42;45.29
49297;BME280;35163;48.878;18.040;2023-04-16T09:50:09;98358.50;;;16.50;44.80
49297;BME280;35163;48.878;18.040;2023-04-16T09:52:44;98359.06;;;16.56;45.41
49297;BME280;35163;48.878;18.040;2023-04-16T09:55:11;98366.22;;;16.52;44.89
49297;BME280;35163;48.878;18.040;2023-04-16T09:57:37;98367.31;;;16.64;45.44
49297;BME280;35163;48.878;18.040;2023-04-16T10:00:06;98368.16;;;16.64;44.00
49297;BME280;35163;48.878;18.040;2023-04-16T10:02:35;98358.91;;;16.59;43.56
49297;BME280;35163;48.878;18.040;2023-04-16T10:05:05;98366.63;;;16.60;44.32
49297;BME280;35163;48.878;18.040;2023-04-16T10:07:35;98365.53;;;16.64;44.17
49297;BME280;35163;48.878;18.040;2023-04-16T10:10:03;98360.59;;;16.60;43.70
49297;BME280;35163;48.878;18.040;2023-04-16T10:12:30;98363.22;;;16.60;44.84
49297;BME280;35163;48.878;18.040;2023-04-16T10:14:58;98351.63;;;16.64;44.34
49297;BME280;35163;48.878;18.040;2023-04-16T10:17:25;98353.44;;;16.63;43.93
49297;BME280;35163;48.878;18.040;2023-04-16T10:19:53;98357.03;;;16.61;43.76
49297;BME280;35163;48.878;18.040;2023-04-16T10:22:21;98357.13;;;16.59;43.43
49297;BME280;35163;48.878;18.040;2023-04-16T10:24:48;98353.44;;;16.63;43.28
49297;BME280;35163;48.878;18.040;2023-04-16T10:27:17;98356.72;;;16.67;43.22
49297;BME280;35163;48.878;18.040;2023-04-16T10:29:45;98353.75;;;16.57;43.27
49297;BME280;35163;48.878;18.040;2023-04-16T10:32:12;98349.78;;;16.35;42.22
49297;BME280;35163;48.878;18.040;2023-04-16T10:34:39;98355.84;;;16.36;43.48
49297;BME280;35163;48.878;18.040;2023-04-16T10:37:06;98346.69;;;16.28;44.19
49297;BME280;35163;48.878;18.040;2023-04-16T10:39:34;98340.38;;;16.33;42.57
49297;BME280;35163;48.878;18.040;2023-04-16T10:42:11;98341.94;;;16.35;43.19
49297;BME280;35163;48.878;18.040;2023-04-16T10:44:41;98346.91;;;16.40;43.60
49297;BME280;35163;48.878;18.040;2023-04-16T10:47:12;98338.94;;;16.43;43.67
49297;BME280;35163;48.878;18.040;2023-04-16T10:49:39;98343.28;;;16.43;43.93
49297;BME280;35163;48.878;18.040;2023-04-16T10:52:14;98355.13;;;16.48;42.62
49297;BME280;35163;48.878;18.040;2023-04-16T10:54:43;98341.00;;;16.52;43.89
49297;BME280;35163;48.878;18.040;2023-04-16T10:57:14;98345.25;;;16.54;42.89
49297;BME280;35163;48.878;18.040;2023-04-16T10:59:43;98342.16;;;16.47;42.53
49297;BME280;35163;48.878;18.040;2023-04-16T11:02:13;98342.81;;;16.36;43.19
49297;BME280;35163;48.878;18.040;2023-04-16T11:04:44;98347.94;;;16.37;43.97
49297;BME280;35163;48.878;18.040;2023-04-16T11:07:15;98345.06;;;16.42;44.32
49297;BME280;35163;48.878;18.040;2023-04-16T11:12:16;98345.53;;;16.49;41.84
49297;BME280;35163;48.878;18.040;2023-04-16T11:14:51;98340.59;;;16.44;41.21
49297;BME280;35163;48.878;18.040;2023-04-16T11:17:19;98334.91;;;16.52;42.71
49297;BME280;35163;48.878;18.040;2023-04-16T11:19:46;98332.22;;;16.54;43.14
49297;BME280;35163;48.878;18.040;2023-04-16T11:22:15;98330.38;;;16.56;42.99
49297;BME280;35163;48.878;18.040;2023-04-16T11:24:46;98335.78;;;16.52;43.48
49297;BME280;35163;48.878;18.040;2023-04-16T11:27:13;98324.31;;;16.55;42.58
49297;BME280;35163;48.878;18.040;2023-04-16T11:29:41;98334.50;;;16.60;42.30
49297;BME280;35163;48.878;18.040;2023-04-16T11:32:19;98336.25;;;16.59;42.23
49297;BME280;35163;48.878;18.040;2023-04-16T11:34:47;98339.16;;;16.69;42.76
49297;BME280;35163;48.878;18.040;2023-04-16T11:37:14;98336.94;;;16.77;41.34
49297;BME280;35163;48.878;18.040;2023-04-16T11:39:49;98336.41;;;16.87;41.63
49297;BME280;35163;48.878;18.040;2023-04-16T11:42:22;98338.84;;;16.90;41.71
49297;BME280;35163;48.878;18.040;2023-04-16T11:44:54;98334.56;;;16.89;41.57
49297;BME280;35163;48.878;18.040;2023-04-16T11:47:22;98329.88;;;16.80;41.56
49297;BME280;35163;48.878;18.040;2023-04-16T11:49:50;98332.28;;;16.83;41.92
49297;BME280;35163;48.878;18.040;2023-04-16T11:52:30;98334.56;;;16.89;40.83
49297;BME280;35163;48.878;18.040;2023-04-16T11:54:58;98328.22;;;16.93;40.74
49297;BME280;35163;48.878;18.040;2023-04-16T11:57:26;98326.25;;;16.82;40.51
49297;BME280;35163;48.878;18.040;2023-04-16T11:59:54;98328.78;;;16.84;41.90
49297;BME280;35163;48.878;18.040;2023-04-16T12:02:38;98334.19;;;16.81;41.04
49297;BME280;35163;48.878;18.040;2023-04-16T12:07:54;98327.44;;;16.76;41.62
49297;BME280;35163;48.878;18.040;2023-04-16T12:10:23;98325.69;;;16.77;40.61
49297;BME280;35163;48.878;18.040;2023-04-16T12:12:50;98332.75;;;16.75;39.96
49297;BME280;35163;48.878;18.040;2023-04-16T12:15:17;98330.81;;;16.79;41.66
49297;BME280;35163;48.878;18.040;2023-04-16T12:17:44;98328.09;;;16.80;42.81
49297;BME280;35163;48.878;18.040;2023-04-16T12:20:12;98324.84;;;16.76;42.28
49297;BME280;35163;48.878;18.040;2023-04-16T12:22:46;98330.81;;;16.79;43.50
49297;BME280;35163;48.878;18.040;2023-04-16T12:25:15;98323.88;;;16.77;42.34
49297;BME280;35163;48.878;18.040;2023-04-16T12:27:53;98331.66;;;16.79;42.92
49297;BME280;35163;48.878;18.040;2023-04-16T12:30:22;98329.97;;;16.78;42.67
49297;BME280;35163;48.878;18.040;2023-04-16T12:32:51;98321.47;;;16.74;42.91
49297;BME280;35163;48.878;18.040;2023-04-16T12:35:30;98322.03;;;16.80;43.12
49297;BME280;35163;48.878;18.040;2023-04-16T12:37:58;98322.88;;;16.80;43.60
49297;BME280;35163;48.878;18.040;2023-04-16T12:40:25;98327.91;;;16.83;44.96
49297;BME280;35163;48.878;18.040;2023-04-16T12:42:52;98328.09;;;16.80;44.08
49297;BME280;35163;48.878;18.040;2023-04-16T12:45:18;98320.28;;;16.80;43.67
49297;BME280;35163;48.878;18.040;2023-04-16T12:47:46;98321.84;;;16.83;43.36
49297;BME280;35163;48.878;18.040;2023-04-16T12:50:12;98322.69;;;16.83;43.68
49297;BME280;35163;48.878;18.040;2023-04-16T12:52:39;98321.69;;;16.86;43.24
49297;BME280;35163;48.878;18.040;2023-04-16T12:55:06;98324.22;;;16.87;43.08
49297;BME280;35163;48.878;18.040;2023-04-16T12:57:33;98319.81;;;16.88;42.09
49297;BME280;35163;48.878;18.040;2023-04-16T12:59:59;98322.41;;;16.88;42.07
49297;BME280;35163;48.878;18.040;2023-04-16T13:02:26;98323.38;;;16.87;42.58
49297;BME280;35163;48.878;18.040;2023-04-16T13:04:54;98322.25;;;16.91;43.07
49297;BME280;35163;48.878;18.040;2023-04-16T13:07:21;98322.06;;;16.94;43.66